ミールヌイ の空港の天気 - METARとTAF

Mirny ( UERR / MJZ ) - ロシア ミールヌイ
飛行場実況気象(Metar)
観測時間08/11 16:30 YAKT (08/11 07:30 UTC)
風向・風速北 9m/s 瞬間風速15m/s
視程10km以上
天気現象弱い雷雨
全天の8割程度の雲 雲底高度 790m
気温15℃
湿度94%
気圧1004hPa
METARUERR 110730Z 36009G15MPS 9999 -TSRA BKN026CB 15/14 Q1004 R25/CLRD60 NOSIG RMK QFE723
過去の天気等 Google飛行場航空写真 Wunderground天気予報

過去48時間のMETAR

飛行場予報(TAF)
発表時間: 8/11 14:00 YAKT (8/11 05:00 UTC)
予報対象時間: 11日15時 YAKT ~ 12日15時 YAKT
風向・風速北西 5m/s 瞬間風速 10m/s
視程10km以上
全天の4割程度の積乱雲 雲底高度 760m
全天を覆う雲 雲底高度 3050m
11日15時 YAKT ~ 11日21時 YAKT に一時的に
天気現象弱い雷雨
11日21時 YAKT ~ 11日22時 YAKT に徐々に
風向・風速不定 1m/s
TAF UERR 110500Z 1106/1206 31005G10MPS 9999 SCT025CB OVC100
TEMPO 1106/1112 -TSRA
BECMG 1112/1113 VRB01MPS